createdAt,value
2023-04-11T00:04:01.014Z,51907.72
2023-04-11T00:09:06.968Z,51867.72
2023-04-11T00:14:12.816Z,51849.72
2023-04-11T00:19:17.365Z,51827.72
2023-04-11T00:24:23.088Z,51829.72
2023-04-11T00:29:27.488Z,51813.72
2023-04-11T00:34:32.227Z,51803.72
2023-04-11T00:39:38.612Z,51801.72
2023-04-11T00:44:43.002Z,51793.72
2023-04-11T00:49:47.510Z,51757.72
2023-04-11T00:54:53.500Z,51777.72
2023-04-11T00:59:58.483Z,51783.72
2023-04-11T01:05:02.770Z,51823.72
2023-04-11T01:10:11.384Z,51749.72
2023-04-11T01:15:15.862Z,51771.72
2023-04-11T01:20:21.823Z,51781.72
2023-04-11T01:25:28.307Z,51799.72
2023-04-11T01:30:33.379Z,51823.72
2023-04-11T01:35:37.793Z,51789.72
2023-04-11T01:40:44.743Z,51769.72
2023-04-11T01:45:49.346Z,51733.72
2023-04-11T01:50:53.581Z,51741.72
2023-04-11T01:55:59.196Z,51709.72
2023-04-11T02:01:03.396Z,51705.72
2023-04-11T02:06:08.349Z,51651.72
2023-04-11T02:11:14.108Z,51663.72
2023-04-11T02:16:18.547Z,51687.72
2023-04-11T02:21:23.061Z,51675.72
2023-04-11T02:26:28.865Z,51659.72
2023-04-11T02:31:34.318Z,51723.72
2023-04-11T02:36:38.547Z,51657.72
2023-04-11T02:41:44.251Z,51705.72
2023-04-11T02:46:48.691Z,51701.72
2023-04-11T02:51:52.911Z,51683.72
2023-04-11T02:56:58.767Z,51663.72
2023-04-11T03:02:03.660Z,51671.72
2023-04-11T03:07:08.590Z,51681.72
2023-04-11T03:12:14.335Z,51661.72
2023-04-11T03:17:29.188Z,51623.72
2023-04-11T03:22:34.148Z,51685.72
2023-04-11T03:27:40.202Z,51681.72
2023-04-11T03:32:44.779Z,51689.72
2023-04-11T03:37:49.499Z,51687.72
2023-04-11T03:42:55.700Z,51713.72
2023-04-11T03:48:04.711Z,51687.72
2023-04-11T03:53:22.647Z,51729.72
2023-04-11T03:58:32.905Z,51741.72
2023-04-11T04:03:37.873Z,51733.72
2023-04-11T04:08:42.273Z,51693.72
2023-04-11T04:13:48.974Z,51671.72
2023-04-11T04:18:56.336Z,51685.72
2023-04-11T04:24:03.883Z,51649.72
2023-04-11T04:29:35.030Z,51675.72
2023-04-11T04:34:47.052Z,51657.72
2023-04-11T04:40:02.364Z,51673.72
2023-04-11T04:45:11.749Z,51727.72
2023-04-11T04:50:17.644Z,51735.72
2023-04-11T04:55:22.040Z,51785.72
2023-04-11T05:00:29.496Z,51753.72
2023-04-11T05:05:38.232Z,51749.72
2023-04-11T05:10:42.472Z,51737.72
2023-04-11T05:15:54.397Z,51789.72
2023-04-11T05:21:05.290Z,51801.72
2023-04-11T05:26:15.561Z,51815.72
2023-04-11T05:31:21.914Z,51865.72
2023-04-11T05:36:26.564Z,51945.69
2023-04-11T05:41:31.504Z,51953.69
2023-04-11T05:46:37.992Z,51979.69
2023-04-11T05:51:42.193Z,51867.72
2023-04-11T05:56:46.602Z,51785.72
2023-04-11T06:01:52.761Z,51869.72
2023-04-11T06:06:57.566Z,51665.72
2023-04-11T06:12:02.024Z,51577.72
2023-04-11T06:17:07.809Z,51687.72
2023-04-11T06:22:11.986Z,51757.72
2023-04-11T06:27:16.679Z,51677.72
2023-04-11T06:32:23.351Z,51685.72
2023-04-11T06:37:27.683Z,51663.72
2023-04-11T06:42:31.893Z,51629.72
2023-04-11T06:47:37.672Z,51757.72
2023-04-11T06:52:41.832Z,51581.72
2023-04-11T06:57:46.151Z,51521.75
2023-04-11T07:02:52.897Z,51387.75
2023-04-11T07:07:57.304Z,51493.75
2023-04-11T07:13:01.736Z,51471.75
2023-04-11T07:18:08.040Z,51487.75
2023-04-11T07:23:12.442Z,51439.75
2023-04-11T07:28:17.224Z,51405.75
2023-04-11T07:33:22.801Z,51345.75
2023-04-11T07:38:31.223Z,51365.75
2023-04-11T07:43:35.367Z,51401.75
2023-04-11T07:48:41.263Z,51297.78
2023-04-11T07:53:45.831Z,51261.78
2023-04-11T07:58:50.352Z,51339.78
2023-04-11T08:03:57.072Z,51301.78
2023-04-11T08:09:02.173Z,51295.78
2023-04-11T08:14:06.599Z,51327.78
2023-04-11T08:19:12.828Z,51349.78
2023-04-11T08:24:17.864Z,51413.75
2023-04-11T08:29:22.379Z,51361.75
2023-04-11T08:34:28.197Z,51417.75
2023-04-11T08:39:32.547Z,51593.72
2023-04-11T08:44:37.347Z,51653.72
2023-04-11T08:49:43.130Z,51303.78
2023-04-11T08:54:47.525Z,51261.78
2023-04-11T08:59:52.569Z,51311.78
2023-04-11T09:04:59.234Z,51325.78
2023-04-11T09:10:20.019Z,51277.78
2023-04-11T09:15:25.866Z,51219.78
2023-04-11T09:20:31.695Z,51187.81
2023-04-11T09:25:45.764Z,51143.81
2023-04-11T09:30:52.449Z,51193.78
2023-04-11T09:35:58.750Z,51377.75
2023-04-11T09:41:04.968Z,51301.78
2023-04-11T09:46:10.565Z,51193.78
2023-04-11T09:51:31.768Z,51209.78
2023-04-11T09:56:40.063Z,51189.81
2023-04-11T10:01:45.021Z,51243.78
2023-04-11T10:07:02.364Z,51351.75
2023-04-11T10:12:07.362Z,51331.78
2023-04-11T10:17:22.174Z,51333.78
2023-04-11T10:23:03.595Z,51369.75
2023-04-11T10:28:08.180Z,51299.78
2023-04-11T10:33:13.409Z,51207.78
2023-04-11T10:38:50.389Z,51349.78
2023-04-11T10:44:15.046Z,51199.78
2023-04-11T10:49:36.810Z,51219.78
2023-04-11T10:54:42.679Z,51257.78
2023-04-11T11:00:00.289Z,51325.78
2023-04-11T11:05:19.752Z,51359.75
2023-04-11T11:10:43.087Z,51233.78
2023-04-11T11:15:51.466Z,51325.78
2023-04-11T11:20:57.146Z,51273.78
2023-04-11T11:26:02.860Z,51317.78
2023-04-11T11:31:07.646Z,51601.72
2023-04-11T11:36:12.907Z,51591.72
2023-04-11T11:41:18.813Z,51525.75
2023-04-11T11:46:23.386Z,51735.72
2023-04-11T11:51:28.226Z,51715.72
2023-04-11T11:56:34.109Z,51477.75
2023-04-11T12:01:39.139Z,51221.78
2023-04-11T12:06:46.271Z,51339.78
2023-04-11T12:11:56.453Z,51199.78
2023-04-11T12:17:00.937Z,51357.75
2023-04-11T12:22:05.656Z,51165.81
2023-04-11T12:27:12.786Z,51135.81
2023-04-11T12:32:17.357Z,51137.81
2023-04-11T12:37:22.179Z,51139.81
2023-04-11T12:42:28.326Z,51393.75
2023-04-11T12:47:32.811Z,51367.75
2023-04-11T12:52:38.250Z,51135.81
2023-04-11T12:57:43.964Z,51213.78
2023-04-11T13:02:48.791Z,51401.75
2023-04-11T13:07:53.750Z,51199.78
2023-04-11T13:13:05.404Z,51249.78
2023-04-11T13:18:16.242Z,51201.78
2023-04-11T13:23:20.752Z,51107.81
2023-04-11T13:28:26.382Z,51087.81
2023-04-11T13:33:30.802Z,51109.81
2023-04-11T13:38:35.363Z,51073.81
2023-04-11T13:43:41.376Z,50917.88
2023-04-11T13:48:45.827Z,50921.88
2023-04-11T13:53:50.166Z,50917.88
2023-04-11T13:58:56.579Z,50929.88
2023-04-11T14:04:01.922Z,50899.88
2023-04-11T14:09:06.877Z,50867.88
2023-04-11T14:14:13.113Z,50881.88
2023-04-11T14:19:17.349Z,50829.91
2023-04-11T14:24:22.438Z,50799.91
2023-04-11T14:29:30.029Z,50731.94
2023-04-11T14:34:34.193Z,50649.97
2023-04-11T14:39:40.112Z,50645.97
2023-04-11T14:44:45.639Z,50633.97
2023-04-11T14:49:50.226Z,50621.97
2023-04-11T14:54:54.558Z,50581.97
2023-04-11T15:00:01.900Z,50609.97
2023-04-11T15:05:06.819Z,50484.03
2023-04-11T15:10:11.867Z,50562.00
2023-04-11T15:15:17.504Z,50552.00
2023-04-11T15:20:22.285Z,50577.97
2023-04-11T15:25:26.796Z,50627.97
2023-04-11T15:30:32.625Z,50689.94
2023-04-11T15:35:36.747Z,50745.91
2023-04-11T15:40:41.271Z,51225.78
2023-04-11T15:45:47.089Z,51713.72
2023-04-11T15:50:52.001Z,51911.72
2023-04-11T15:55:56.468Z,51897.72
2023-04-11T16:01:02.586Z,51981.69
2023-04-11T16:06:08.052Z,52043.69
2023-04-11T16:11:12.551Z,52069.69
2023-04-11T16:16:18.466Z,52121.69
2023-04-11T16:21:25.009Z,52057.69
2023-04-11T16:26:29.207Z,52071.69
2023-04-11T16:31:35.149Z,52127.69
2023-04-11T16:36:39.615Z,52133.69
2023-04-11T16:41:44.411Z,52145.69
2023-04-11T16:46:50.049Z,52115.69
2023-04-11T16:51:54.397Z,52131.69
2023-04-11T16:56:58.796Z,52115.69
2023-04-11T17:02:04.632Z,52109.69
2023-04-11T17:07:10.546Z,52063.69
2023-04-11T17:12:15.167Z,52045.69
2023-04-11T17:17:21.163Z,52029.69
2023-04-11T17:22:25.640Z,52033.69
2023-04-11T17:27:30.326Z,51941.72
2023-04-11T17:32:38.217Z,51961.69
2023-04-11T17:37:43.076Z,51931.69
2023-04-11T17:42:47.824Z,51993.69
2023-04-11T17:47:54.167Z,51975.69
2023-04-11T17:52:58.413Z,51921.72
2023-04-11T17:58:03.766Z,51949.69
2023-04-11T18:03:10.463Z,51965.69
2023-04-11T18:08:15.002Z,51901.72
2023-04-11T18:13:19.240Z,51927.72
2023-04-11T18:18:25.854Z,51921.72
2023-04-11T18:23:30.820Z,51941.72
2023-04-11T18:28:35.439Z,51889.72
2023-04-11T18:33:44.312Z,51905.72
2023-04-11T18:39:04.160Z,51909.72
2023-04-11T18:44:09.747Z,51919.69
2023-04-11T18:49:17.836Z,51859.72
2023-04-11T18:54:23.636Z,51897.72
2023-04-11T18:59:29.676Z,51893.72
2023-04-11T19:04:36.596Z,51891.72
2023-04-11T19:09:41.072Z,51919.69
2023-04-11T19:14:45.691Z,51867.72
2023-04-11T19:19:51.905Z,51893.72
2023-04-11T19:24:56.730Z,51893.72
2023-04-11T19:30:01.015Z,51873.72
2023-04-11T19:35:08.928Z,51897.72
2023-04-11T19:40:14.401Z,51893.72
2023-04-11T19:45:20.636Z,51947.69
2023-04-11T19:50:26.703Z,51933.69
2023-04-11T19:55:31.255Z,51853.72
2023-04-11T20:00:37.785Z,51875.72
2023-04-11T20:05:43.845Z,51897.72
2023-04-11T20:10:48.834Z,51917.72
2023-04-11T20:15:53.168Z,51869.72
2023-04-11T20:20:58.998Z,51877.72
2023-04-11T20:26:03.152Z,51863.72
2023-04-11T20:31:08.550Z,51869.72
2023-04-11T20:36:15.863Z,51877.72
2023-04-11T20:41:20.305Z,51897.72
2023-04-11T20:46:24.797Z,51839.72
2023-04-11T20:51:30.886Z,51837.72
2023-04-11T20:56:35.802Z,51823.72
2023-04-11T21:01:40.954Z,51851.72
2023-04-11T21:06:46.629Z,51789.72
2023-04-11T21:11:50.821Z,51763.72
2023-04-11T21:16:55.010Z,51785.72
2023-04-11T21:22:01.033Z,51763.72
2023-04-11T21:27:05.603Z,51793.72
2023-04-11T21:32:10.273Z,51765.72
2023-04-11T21:37:16.100Z,51725.72
2023-04-11T21:42:20.202Z,51773.72
2023-04-11T21:47:24.585Z,51761.72
2023-04-11T21:52:30.373Z,51723.72
2023-04-11T21:57:35.331Z,51769.72
2023-04-11T22:02:39.862Z,51765.72
2023-04-11T22:07:49.637Z,51747.72
2023-04-11T22:12:54.810Z,51743.72
2023-04-11T22:18:02.435Z,51729.72
2023-04-11T22:23:09.764Z,51721.72
2023-04-11T22:28:18.520Z,51717.72
2023-04-11T22:33:22.729Z,51701.72
2023-04-11T22:38:28.344Z,51689.72
2023-04-11T22:43:33.477Z,51709.72
2023-04-11T22:48:38.092Z,51659.72
2023-04-11T22:53:48.328Z,51653.72
2023-04-11T22:58:52.723Z,51667.72
2023-04-11T23:03:57.758Z,51649.72
2023-04-11T23:09:04.164Z,51667.72
2023-04-11T23:14:08.522Z,51653.72
2023-04-11T23:19:13.271Z,51639.72
2023-04-11T23:24:18.868Z,51637.72
2023-04-11T23:29:23.179Z,51613.72
2023-04-11T23:34:27.488Z,51633.72
2023-04-11T23:39:33.329Z,51649.72
2023-04-11T23:44:37.715Z,51653.72
2023-04-11T23:49:42.021Z,51653.72
2023-04-11T23:54:48.069Z,51631.72
2023-04-11T23:59:52.597Z,51663.72
